Time;durP1;ratioP1;P1;durP2;ratioP2;P2;SDS_P1;SDS_P2;PMS_P1;PMS_P2;Temp;Humidity;BMP_temperature;BMP_pressure;BME280_temperature;BME280_humidity;BME280_pressure;Samples;Min_cycle;Max_cycle;Signal;HPM_P1;HPM_P2
2022/06/09 00:00:39;;;;;;;;;5.00;5.00;;;;;22.59;57.82;97659.16;5010879;27;109077;-60
2022/06/09 00:03:09;;;;;;;;;8.67;8.00;;;;;22.58;57.72;97669.38;4981152;27;102327;-60
2022/06/09 00:05:37;;;;;;;;;6.33;6.33;;;;;22.58;57.57;97665.78;5003176;27;102502;-60
2022/06/09 00:08:04;;;;;;;;;7.33;7.33;;;;;22.58;57.48;97666.63;5019513;27;102286;-60
2022/06/09 00:10:33;;;;;;;;;5.00;4.00;;;;;22.57;57.73;97669.66;4984827;27;104073;-60
2022/06/09 00:13:00;;;;;;;;;7.33;6.67;;;;;22.57;57.42;97670.47;5010597;27;102675;-60
2022/06/09 00:15:28;;;;;;;;;7.33;6.00;;;;;22.56;57.84;97663.31;4983843;27;102494;-60
2022/06/09 00:17:56;;;;;;;;;8.00;6.00;;;;;22.58;57.82;97674.06;5008993;27;105848;-59
2022/06/09 00:20:24;;;;;;;;;7.00;7.00;;;;;22.57;57.65;97676.00;5008058;27;104249;-60
2022/06/09 00:22:51;;;;;;;;;7.00;6.00;;;;;22.57;57.76;97669.66;5008457;27;102620;-59
2022/06/09 00:25:18;;;;;;;;;6.67;6.00;;;;;22.56;57.77;97685.38;5005669;27;102547;-59
2022/06/09 00:27:45;;;;;;;;;7.00;7.00;;;;;22.56;57.74;97685.38;5007350;27;102108;-60
2022/06/09 00:30:14;;;;;;;;;6.33;6.00;;;;;22.56;57.36;97698.34;5001756;27;104640;-60
2022/06/09 00:32:41;;;;;;;;;4.00;4.00;;;;;22.57;57.46;97700.78;4997673;27;102288;-60
2022/06/09 00:35:08;;;;;;;;;7.00;7.00;;;;;22.57;57.32;97722.00;5004746;27;102164;-60
2022/06/09 00:37:36;;;;;;;;;7.00;6.00;;;;;22.56;57.45;97717.66;5018525;27;105068;-60
2022/06/09 00:40:04;;;;;;;;;6.00;6.00;;;;;22.56;57.50;97717.66;5003120;27;105329;-61
2022/06/09 00:42:33;;;;;;;;;8.00;6.00;;;;;22.55;57.48;97718.75;5013145;27;102399;-60
2022/06/09 00:45:42;;;;;;;;;6.00;5.67;;;;;22.55;57.58;97716.00;4999581;27;104583;-60
2022/06/09 00:48:19;;;;;;;;;7.00;6.00;;;;;22.56;57.60;97712.13;4965130;28;102545;-60
2022/06/09 00:50:48;;;;;;;;;7.00;6.67;;;;;22.55;57.69;97699.47;4960336;28;104108;-60
2022/06/09 00:53:20;;;;;;;;;7.33;6.33;;;;;22.54;57.59;97687.63;4993633;27;103304;-60
2022/06/09 00:55:47;;;;;;;;;6.67;6.67;;;;;22.53;57.50;97690.66;4997839;27;102261;-60
2022/06/09 00:58:16;;;;;;;;;5.33;4.00;;;;;22.53;57.54;97674.97;5011302;27;102339;-60
2022/06/09 01:00:50;;;;;;;;;7.00;6.00;;;;;22.53;57.39;97674.97;5000860;27;104109;-60
2022/06/09 01:03:18;;;;;;;;;6.67;6.33;;;;;22.54;57.29;97664.75;4980727;27;102301;-60
2022/06/09 01:05:45;;;;;;;;;7.00;6.67;;;;;22.53;57.50;97663.13;4998070;27;102306;-60
2022/06/09 01:08:14;;;;;;;;;6.00;5.00;;;;;22.52;57.35;97654.03;4983242;27;102550;-60
2022/06/09 01:10:41;;;;;;;;;7.33;6.67;;;;;22.52;57.38;97648.53;4973151;27;104080;-60
2022/06/09 01:13:09;;;;;;;;;8.33;7.33;;;;;22.52;57.15;97650.47;4989824;27;103183;-60
2022/06/09 01:16:04;;;;;;;;;5.33;5.00;;;;;22.53;57.31;97649.34;4987134;27;102580;-61
2022/06/09 01:18:34;;;;;;;;;8.00;7.00;;;;;22.53;57.52;97652.91;4996861;27;103083;-60
2022/06/09 01:21:06;;;;;;;;;6.33;6.00;;;;;22.53;57.14;97643.84;5007195;27;109583;-60
2022/06/09 01:23:41;;;;;;;;;6.00;6.00;;;;;22.53;57.51;97641.06;4991139;27;102165;-61
2022/06/09 01:26:27;;;;;;;;;7.67;7.00;;;;;22.52;57.12;97620.16;4980262;27;102748;-61
2022/06/09 01:29:06;;;;;;;;;6.00;6.00;;;;;22.51;57.23;97608.34;4997409;27;102207;-60
2022/06/09 01:31:59;;;;;;;;;7.00;6.67;;;;;22.51;57.18;97607.50;5018567;27;109107;-60
2022/06/09 01:34:43;;;;;;;;;5.67;5.00;;;;;22.51;57.23;97621.28;4998751;27;102385;-61
2022/06/09 01:37:21;;;;;;;;;7.67;7.33;;;;;22.51;57.10;97618.53;5007316;27;102521;-61
2022/06/09 01:39:55;;;;;;;;;7.00;5.00;;;;;22.50;56.92;97614.13;4984805;27;102284;-60
2022/06/09 01:42:49;;;;;;;;;6.00;6.00;;;;;22.50;57.23;97627.91;5002823;27;103847;-60
2022/06/09 01:45:44;;;;;;;;;6.00;5.67;;;;;22.50;57.04;97622.41;5011181;27;102234;-60
2022/06/09 01:48:19;;;;;;;;;6.00;6.00;;;;;22.52;57.17;97609.13;5006905;27;102193;-59
2022/06/09 01:51:11;;;;;;;;;5.00;4.00;;;;;22.51;57.13;97610.28;4990952;27;102697;-60
2022/06/09 01:53:53;;;;;;;;;7.67;5.00;;;;;22.51;57.30;97613.03;4968429;27;108948;-60
2022/06/09 01:56:36;;;;;;;;;7.00;7.00;;;;;22.50;57.26;97616.91;5009231;27;102246;-60
2022/06/09 01:59:18;;;;;;;;;5.00;5.00;;;;;22.50;57.29;97625.16;5008953;27;102387;-60
2022/06/09 02:01:50;;;;;;;;;5.67;5.67;;;;;22.50;57.12;97630.66;5017331;27;102504;-60
2022/06/09 02:04:22;;;;;;;;;5.67;5.67;;;;;22.48;57.12;97622.69;4982748;27;104067;-59
2022/06/09 02:06:49;;;;;;;;;5.67;5.67;;;;;22.48;57.12;97611.69;5013596;27;102425;-60
2022/06/09 02:09:16;;;;;;;;;6.00;6.00;;;;;22.49;57.02;97612.50;4990997;28;102306;-60
2022/06/09 02:11:51;;;;;;;;;7.33;6.00;;;;;22.48;57.06;97610.84;5007674;27;102448;-60
2022/06/09 02:14:20;;;;;;;;;6.00;5.67;;;;;22.48;56.93;97605.34;5002496;27;104537;-60
2022/06/09 02:16:47;;;;;;;;;6.00;6.00;;;;;22.48;56.78;97610.84;4998373;27;102751;-60
2022/06/09 02:19:15;;;;;;;;;2.00;2.00;;;;;22.48;56.97;97597.06;5013456;27;102571;-60
2022/06/09 02:21:42;;;;;;;;;4.67;4.67;;;;;22.49;57.03;97595.97;5015300;27;102300;-60
2022/06/09 02:24:09;;;;;;;;;7.00;6.00;;;;;22.48;56.95;97597.91;4987769;27;104309;-60
2022/06/09 02:26:36;;;;;;;;;5.00;4.00;;;;;22.49;57.11;97590.47;5017474;27;102720;-60
2022/06/09 02:29:03;;;;;;;;;5.00;5.00;;;;;22.48;56.89;97594.31;5022610;27;103964;-60
2022/06/09 02:31:30;;;;;;;;;5.67;5.33;;;;;22.47;56.73;97589.97;5021590;27;102292;-60
2022/06/09 02:33:58;;;;;;;;;7.00;6.00;;;;;22.47;57.06;97592.72;5016876;27;104102;-60
2022/06/09 02:36:25;;;;;;;;;5.33;5.00;;;;;22.47;56.97;97587.19;4996193;27;101973;-60
2022/06/09 02:38:52;;;;;;;;;5.67;5.67;;;;;22.47;56.76;97593.50;5016284;27;108508;-60
2022/06/09 02:41:19;;;;;;;;;6.33;5.33;;;;;22.46;56.56;97585.56;5011082;27;102483;-61
2022/06/09 02:43:46;;;;;;;;;4.33;4.33;;;;;22.46;56.97;97583.63;5008805;27;104060;-60
2022/06/09 02:46:14;;;;;;;;;3.67;3.67;;;;;22.46;56.92;97586.38;5026130;27;101996;-60
2022/06/09 02:48:41;;;;;;;;;5.00;5.00;;;;;22.46;56.57;97593.81;5002533;27;102345;-61
2022/06/09 02:51:17;;;;;;;;;7.33;6.67;;;;;22.46;56.77;97594.66;5020406;27;102182;-61
2022/06/09 02:53:44;;;;;;;;;5.00;5.00;;;;;22.46;56.73;97591.06;5028376;27;104198;-61
2022/06/09 02:56:11;;;;;;;;;5.00;4.00;;;;;22.47;56.98;97599.00;5013244;27;102890;-60
2022/06/09 02:58:38;;;;;;;;;5.33;5.33;;;;;22.46;56.83;97599.34;5023544;27;102460;-60
2022/06/09 03:01:05;;;;;;;;;7.67;7.00;;;;;22.46;56.72;97596.59;5014104;27;102164;-60
2022/06/09 03:03:33;;;;;;;;;4.33;4.00;;;;;22.46;56.58;97602.09;5009005;27;111073;-60
2022/06/09 03:06:00;;;;;;;;;5.67;5.67;;;;;22.45;56.43;97600.44;5014689;27;102285;-60
2022/06/09 03:08:27;;;;;;;;;7.00;5.00;;;;;22.45;56.23;97592.19;5010385;27;104247;-60
2022/06/09 03:10:54;;;;;;;;;4.33;4.00;;;;;22.44;56.45;97598.81;5018643;27;102318;-60
2022/06/09 03:13:21;;;;;;;;;4.33;4.00;;;;;22.44;56.48;97598.81;5016068;27;103752;-60
2022/06/09 03:15:50;;;;;;;;;5.67;5.00;;;;;22.43;56.59;97594.41;5004149;27;104173;-60
2022/06/09 03:18:17;;;;;;;;;4.33;3.33;;;;;22.44;56.54;97598.81;5014266;27;102337;-61
2022/06/09 03:20:45;;;;;;;;;5.67;5.67;;;;;22.42;56.62;97593.63;5028602;27;102123;-60
2022/06/09 03:23:12;;;;;;;;;5.00;5.00;;;;;22.45;56.88;97594.94;5006915;27;104065;-60
2022/06/09 03:25:39;;;;;;;;;6.00;5.00;;;;;22.45;56.53;97592.19;5016580;27;105651;-60
2022/06/09 03:28:07;;;;;;;;;6.00;6.00;;;;;22.45;56.56;97597.69;5014806;27;102659;-60
2022/06/09 03:30:34;;;;;;;;;5.33;5.00;;;;;22.44;56.43;97594.13;5003654;27;102281;-60
2022/06/09 03:33:01;;;;;;;;;5.33;3.67;;;;;22.44;56.43;97594.13;5001427;27;104089;-60
2022/06/09 03:35:29;;;;;;;;;4.67;4.67;;;;;22.44;56.43;97596.06;4996717;27;103703;-60
2022/06/09 03:37:56;;;;;;;;;3.67;3.67;;;;;22.44;56.33;97593.28;5017190;27;102337;-60
2022/06/09 03:40:24;;;;;;;;;5.00;4.33;;;;;22.44;56.21;97587.78;5029650;27;103176;-60
2022/06/09 03:42:51;;;;;;;;;4.00;4.00;;;;;22.43;56.53;97591.66;4998715;27;104505;-60
2022/06/09 03:45:18;;;;;;;;;4.00;4.00;;;;;22.42;56.02;97596.38;5013062;27;103233;-60
2022/06/09 03:47:45;;;;;;;;;4.67;3.67;;;;;22.44;56.44;97590.53;5011405;27;103650;-60
2022/06/09 03:50:15;;;;;;;;;4.67;4.67;;;;;22.43;56.07;97586.16;5016874;27;102460;-60
2022/06/09 03:52:42;;;;;;;;;4.00;4.00;;;;;22.43;56.27;97597.16;5018381;27;104281;-60
2022/06/09 03:55:11;;;;;;;;;4.33;4.33;;;;;22.43;56.74;97597.16;5021305;27;104025;-60
2022/06/09 03:57:38;;;;;;;;;6.00;5.00;;;;;22.43;56.37;97599.91;5017401;27;102598;-60
2022/06/09 04:00:06;;;;;;;;;4.67;4.67;;;;;22.43;56.62;97599.91;5016134;27;102639;-60
2022/06/09 04:02:33;;;;;;;;;4.67;4.67;;;;;22.44;56.20;97593.28;5006764;27;103932;-60
2022/06/09 04:05:01;;;;;;;;;4.67;4.67;;;;;22.44;56.23;97601.56;5010672;27;103751;-60
2022/06/09 04:07:29;;;;;;;;;3.00;3.00;;;;;22.43;56.61;97597.16;5010423;27;104048;-60
2022/06/09 04:09:56;;;;;;;;;4.67;4.67;;;;;22.42;56.46;97601.88;5033814;27;102169;-60
2022/06/09 04:12:24;;;;;;;;;4.00;4.00;;;;;22.42;56.20;97598.31;5011932;27;104048;-60
2022/06/09 04:14:52;;;;;;;;;4.33;3.00;;;;;22.41;56.39;97605.75;5007648;27;102429;-60
2022/06/09 04:17:19;;;;;;;;;3.67;3.00;;;;;22.43;56.12;97608.19;5015457;27;102303;-60
2022/06/09 04:19:46;;;;;;;;;5.00;4.33;;;;;22.42;56.03;97606.56;5016672;27;102076;-59
2022/06/09 04:22:13;;;;;;;;;5.00;5.00;;;;;22.43;56.24;97608.19;5026861;27;104080;-60
2022/06/09 04:24:40;;;;;;;;;5.00;4.33;;;;;22.43;56.04;97602.69;5012063;27;102159;-59
2022/06/09 04:27:09;;;;;;;;;4.00;4.00;;;;;22.43;56.29;97608.19;5026507;27;104251;-60
2022/06/09 04:29:36;;;;;;;;;5.33;5.00;;;;;22.42;56.39;97604.63;5017652;27;102132;-60
2022/06/09 04:32:04;;;;;;;;;3.00;3.00;;;;;22.44;56.49;97604.31;5013642;27;104059;-60
2022/06/09 04:34:31;;;;;;;;;4.33;4.00;;;;;22.43;56.30;97600.75;5018150;27;104257;-60
2022/06/09 04:36:59;;;;;;;;;4.00;3.00;;;;;22.44;56.65;97604.31;5010317;27;102857;-60
2022/06/09 04:39:26;;;;;;;;;4.00;4.00;;;;;22.44;56.25;97604.31;5006254;27;102238;-59
2022/06/09 04:41:53;;;;;;;;;5.67;5.67;;;;;22.45;56.40;97608.72;4999394;27;104066;-60
2022/06/09 04:44:20;;;;;;;;;4.00;4.00;;;;;22.43;56.23;97611.75;5006440;27;103489;-60
2022/06/09 04:46:47;;;;;;;;;4.00;4.00;;;;;22.44;56.53;97618.09;5004093;27;105005;-60
2022/06/09 04:49:14;;;;;;;;;4.00;4.00;;;;;22.44;56.18;97624.41;4996802;27;102503;-59
2022/06/09 04:51:41;;;;;;;;;4.33;4.33;;;;;22.43;56.67;97614.50;5009187;27;104027;-60
2022/06/09 04:54:08;;;;;;;;;3.00;3.00;;;;;22.43;56.33;97617.28;5001813;27;103608;-60
2022/06/09 04:56:36;;;;;;;;;3.00;3.00;;;;;22.44;56.29;97620.84;4991901;28;102085;-60
2022/06/09 04:59:04;;;;;;;;;4.67;3.67;;;;;22.45;56.35;97616.97;5021205;27;102278;-60
2022/06/09 05:01:31;;;;;;;;;4.00;4.00;;;;;22.45;56.59;97625.25;5010013;27;104168;-60
2022/06/09 05:03:59;;;;;;;;;4.33;4.33;;;;;22.44;56.41;97618.09;5021456;27;102179;-60
2022/06/09 05:06:27;;;;;;;;;6.00;6.00;;;;;22.43;56.41;97620.03;5006848;27;104444;-60
2022/06/09 05:08:55;;;;;;;;;4.67;4.00;;;;;22.43;56.52;97631.03;5023343;27;102125;-60
2022/06/09 05:11:25;;;;;;;;;3.67;3.67;;;;;22.43;56.45;97630.22;5023729;27;104188;-60
2022/06/09 05:13:53;;;;;;;;;5.33;5.00;;;;;22.44;56.19;97631.88;5009229;27;102394;-60
2022/06/09 05:16:20;;;;;;;;;4.00;4.00;;;;;22.43;56.46;97638.50;5009568;27;102458;-60
2022/06/09 05:18:47;;;;;;;;;3.00;3.00;;;;;22.44;56.13;97624.41;5021856;27;102597;-60
2022/06/09 05:21:15;;;;;;;;;4.33;4.00;;;;;22.46;56.27;97637.91;5022871;27;104205;-60
2022/06/09 05:23:42;;;;;;;;;5.00;3.33;;;;;22.46;56.24;97643.41;5009952;27;102507;-60
2022/06/09 05:26:09;;;;;;;;;3.67;3.33;;;;;22.47;56.07;97647.81;5017017;27;102439;-60
2022/06/09 05:28:37;;;;;;;;;6.33;5.33;;;;;22.47;56.36;97640.34;5007444;27;102220;-60
2022/06/09 05:31:04;;;;;;;;;4.00;4.00;;;;;22.48;56.02;97654.94;5006866;27;104054;-60
2022/06/09 05:33:31;;;;;;;;;4.00;4.00;;;;;22.49;56.36;97659.34;5013972;27;102139;-60
2022/06/09 05:35:58;;;;;;;;;4.00;4.00;;;;;22.48;56.31;97655.75;5017499;27;102296;-60
2022/06/09 05:46:43;;;;;;;;;2.33;2.33;;;;;22.49;56.12;97665.66;5018036;27;102128;-60
2022/06/09 05:49:17;;;;;;;;;4.00;4.00;;;;;22.49;56.03;97668.41;5014923;27;102654;-60
2022/06/09 05:51:45;;;;;;;;;4.67;4.00;;;;;22.49;56.19;97670.34;5017904;27;104253;-60
2022/06/09 05:54:12;;;;;;;;;4.00;3.67;;;;;22.50;56.06;97663.72;5011195;27;103812;-60
2022/06/09 05:56:39;;;;;;;;;4.00;4.00;;;;;22.52;55.94;97672.50;5014735;27;102235;-60
2022/06/09 05:59:06;;;;;;;;;3.00;3.00;;;;;22.51;55.92;97677.22;5016335;27;102798;-60
2022/06/09 06:01:33;;;;;;;;;4.00;4.00;;;;;22.52;55.69;97672.50;5011853;27;104085;-60
2022/06/09 06:04:03;;;;;;;;;2.67;2.67;;;;;22.53;55.86;97669.44;5012696;27;102099;-60
2022/06/09 06:06:33;;;;;;;;;5.00;4.33;;;;;22.53;56.06;97668.63;5020803;27;102389;-60
2022/06/09 06:09:15;;;;;;;;;3.67;3.67;;;;;22.53;55.93;97668.63;5017991;27;102791;-59
2022/06/09 06:11:43;;;;;;;;;4.67;4.00;;;;;22.53;55.88;97668.63;5003736;27;109129;-59
2022/06/09 06:14:14;;;;;;;;;4.67;4.00;;;;;22.54;55.93;97670.28;5002001;27;102389;-59
2022/06/09 06:16:41;;;;;;;;;5.00;5.00;;;;;22.53;56.29;97669.44;5014622;27;102421;-60
2022/06/09 06:19:10;;;;;;;;;3.67;3.67;;;;;22.54;56.08;97678.53;5029035;27;102295;-59
2022/06/09 06:21:37;;;;;;;;;5.67;4.67;;;;;22.54;56.04;97673.84;5000699;28;104082;-59
2022/06/09 06:24:05;;;;;;;;;2.67;2.67;;;;;22.54;56.04;97678.53;5017711;27;103403;-59
2022/06/09 06:26:33;;;;;;;;;3.00;3.00;;;;;22.55;55.96;97671.91;5023228;27;102210;-59
2022/06/09 06:29:00;;;;;;;;;4.00;3.00;;;;;22.55;55.92;97675.50;5017878;27;102445;-59
2022/06/09 06:31:27;;;;;;;;;4.00;4.00;;;;;22.57;55.77;97677.94;5032273;27;104200;-59
2022/06/09 06:33:54;;;;;;;;;2.00;2.00;;;;;22.56;55.96;97676.31;5031800;27;102356;-59
2022/06/09 06:36:21;;;;;;;;;2.33;2.33;;;;;22.58;55.93;97671.31;5011051;27;102187;-60
2022/06/09 06:38:49;;;;;;;;;3.33;3.00;;;;;22.57;55.88;97669.66;5021798;27;102783;-59
2022/06/09 06:41:17;;;;;;;;;4.67;3.00;;;;;22.58;55.95;97668.56;5009508;27;104272;-59
2022/06/09 06:43:45;;;;;;;;;4.33;3.33;;;;;22.57;55.89;97669.66;5012816;27;102127;-59
2022/06/09 06:46:12;;;;;;;;;3.00;3.00;;;;;22.57;55.98;97658.63;5032053;27;102218;-60
2022/06/09 06:48:39;;;;;;;;;2.00;2.00;;;;;22.58;55.75;97665.78;5034124;27;102255;-60
2022/06/09 06:51:06;;;;;;;;;3.33;3.00;;;;;22.57;55.88;97653.94;5016114;27;104041;-60
2022/06/09 06:53:35;;;;;;;;;4.67;4.67;;;;;22.58;55.79;97665.78;5013845;27;102166;-60
2022/06/09 06:56:02;;;;;;;;;2.67;2.33;;;;;22.59;55.83;97667.44;5021364;27;102475;-60
2022/06/09 06:58:30;;;;;;;;;3.67;3.67;;;;;22.59;55.75;97667.44;5021962;27;102013;-60
2022/06/09 07:00:57;;;;;;;;;3.33;3.33;;;;;22.60;55.82;97669.88;5009190;27;104080;-60
2022/06/09 07:03:25;;;;;;;;;4.00;3.00;;;;;22.60;55.85;97663.56;5029558;27;102297;-60
2022/06/09 07:06:00;;;;;;;;;3.00;3.00;;;;;22.60;55.68;97669.09;5020093;27;102213;-60
2022/06/09 07:08:28;;;;;;;;;2.67;2.67;;;;;22.61;55.71;97670.69;5028942;27;102614;-60
2022/06/09 07:10:55;;;;;;;;;3.67;3.00;;;;;22.61;55.60;97674.28;5019609;27;103993;-60
2022/06/09 07:13:22;;;;;;;;;3.67;3.00;;;;;22.61;55.69;97678.97;5005108;27;102434;-60
2022/06/09 07:15:49;;;;;;;;;4.33;3.00;;;;;22.63;55.68;97679.50;5013651;27;104079;-60
2022/06/09 07:18:16;;;;;;;;;3.00;3.00;;;;;22.62;55.56;97669.59;5003425;27;103354;-60
2022/06/09 07:20:44;;;;;;;;;4.00;4.00;;;;;22.63;55.89;97671.22;5014611;27;103757;-60
2022/06/09 07:23:11;;;;;;;;;3.33;2.00;;;;;22.63;55.66;97663.78;5020202;27;102108;-60
2022/06/09 07:25:38;;;;;;;;;3.00;3.00;;;;;22.63;55.70;97673.97;5009212;27;102408;-60
2022/06/09 07:28:06;;;;;;;;;4.00;4.00;;;;;22.64;55.52;97672.88;5023267;27;103168;-60
2022/06/09 07:30:33;;;;;;;;;4.67;2.67;;;;;22.65;55.51;97675.31;5012732;27;104036;-60
2022/06/09 07:33:00;;;;;;;;;3.33;3.33;;;;;22.65;55.45;97672.53;5013423;27;101967;-60
2022/06/09 07:35:29;;;;;;;;;3.67;2.67;;;;;22.66;55.31;97679.69;5020877;27;102050;-60
2022/06/09 07:37:56;;;;;;;;;3.67;3.00;;;;;22.66;55.39;97673.38;5012363;27;102135;-60
2022/06/09 07:40:23;;;;;;;;;3.00;3.00;;;;;22.67;55.56;97675.00;5025706;27;104128;-60
2022/06/09 07:42:50;;;;;;;;;2.33;2.33;;;;;22.67;55.41;97673.06;5005978;27;102386;-60
2022/06/09 07:45:18;;;;;;;;;3.00;3.00;;;;;22.68;55.41;97674.72;5006461;27;102118;-60
2022/06/09 07:47:45;;;;;;;;;3.67;3.00;;;;;22.68;55.50;97676.66;5023265;27;104344;-60
2022/06/09 07:50:13;;;;;;;;;2.67;2.67;;;;;22.68;55.29;97677.47;5014795;27;104178;-60
2022/06/09 07:52:44;;;;;;;;;2.00;2.00;;;;;22.68;55.43;97679.41;5009634;27;102153;-60
2022/06/09 07:55:12;;;;;;;;;4.33;4.00;;;;;22.69;55.00;97675.53;5025051;27;102153;-60
2022/06/09 07:57:39;;;;;;;;;3.00;3.00;;;;;22.69;55.42;97667.28;5015153;27;102641;-60
2022/06/09 08:00:07;;;;;;;;;2.00;2.00;;;;;22.71;55.12;97670.56;5009697;27;104201;-60
2022/06/09 08:02:34;;;;;;;;;1.67;1.67;;;;;22.70;55.14;97668.91;5023534;27;102096;-60
2022/06/09 08:05:02;;;;;;;;;4.67;3.00;;;;;22.72;55.00;97671.38;5021590;27;102197;-60
2022/06/09 08:07:29;;;;;;;;;3.00;3.00;;;;;22.73;55.08;97668.34;5029562;27;102507;-61
2022/06/09 08:09:56;;;;;;;;;2.67;2.67;;;;;22.73;55.15;97662.81;5016231;27;104297;-60
2022/06/09 08:12:23;;;;;;;;;3.00;3.00;;;;;22.73;54.90;97668.34;5018686;27;102086;-61
2022/06/09 08:14:50;;;;;;;;;3.67;3.00;;;;;22.75;55.18;97659.75;5017893;27;102143;-61
2022/06/09 08:17:17;;;;;;;;;2.67;2.33;;;;;22.75;55.15;97674.34;5009042;27;102286;-61
2022/06/09 08:19:46;;;;;;;;;3.00;3.00;;;;;22.75;54.97;97674.34;5011801;27;104125;-60
2022/06/09 08:22:15;;;;;;;;;3.33;3.33;;;;;22.75;55.25;97679.84;5016893;27;102287;-60
2022/06/09 08:24:42;;;;;;;;;6.00;3.33;;;;;22.75;55.15;97671.59;5014811;27;102330;-61
2022/06/09 08:27:09;;;;;;;;;3.00;3.00;;;;;22.76;55.10;97676.00;5014390;27;102222;-60
2022/06/09 08:29:37;;;;;;;;;3.00;3.00;;;;;22.77;54.98;97683.16;5012605;27;104801;-60
2022/06/09 08:32:04;;;;;;;;;2.33;2.33;;;;;22.78;54.70;97681.22;5008724;27;102330;-60
2022/06/09 08:34:32;;;;;;;;;2.00;2.00;;;;;22.78;54.92;97675.69;5013706;27;102482;-60
2022/06/09 08:36:59;;;;;;;;;2.67;2.67;;;;;22.79;54.77;97677.31;5019713;27;102290;-60
2022/06/09 08:39:26;;;;;;;;;2.67;2.67;;;;;22.78;54.90;97676.50;5025186;27;103938;-60
2022/06/09 08:42:16;;;;;;;;;2.67;2.00;;;;;22.79;54.52;97667.09;5019661;27;102161;-60
2022/06/09 08:45:02;;;;;;;;;4.00;4.00;;;;;22.79;54.69;97672.63;5004300;27;102336;-60
2022/06/09 08:47:50;;;;;;;;;1.00;1.00;;;;;22.80;54.70;97670.69;5004911;27;102624;-60
2022/06/09 08:50:44;;;;;;;;;3.00;2.67;;;;;22.80;54.88;97667.94;5001561;27;108881;-60
2022/06/09 08:53:18;;;;;;;;;3.00;3.00;;;;;22.81;54.75;97664.06;5010587;27;102384;-60
2022/06/09 08:55:45;;;;;;;;;0.00;0.00;;;;;22.82;54.78;97668.44;5007918;27;102258;-60
2022/06/09 08:58:38;;;;;;;;;3.00;2.33;;;;;22.82;54.68;97669.28;5033581;27;102216;-60
2022/06/09 09:01:17;;;;;;;;;2.33;2.33;;;;;22.82;54.64;97672.03;5010933;27;109073;-60
2022/06/09 09:04:07;;;;;;;;;2.00;2.00;;;;;22.84;54.75;97679.97;5010899;27;102378;-60
2022/06/09 09:06:43;;;;;;;;;2.00;1.67;;;;;22.84;54.75;97680.81;5006771;27;102356;-60
2022/06/09 09:09:22;;;;;;;;;3.00;3.00;;;;;22.85;54.55;97676.94;5008612;27;103232;-60
2022/06/09 09:11:52;;;;;;;;;2.33;2.33;;;;;22.84;54.46;97675.28;5017632;27;109051;-61
2022/06/09 09:14:27;;;;;;;;;3.00;3.00;;;;;22.85;54.66;97676.09;5014944;27;102263;-61
2022/06/09 09:17:34;;;;;;;;;2.67;2.67;;;;;22.86;54.75;97683.25;4998903;27;102665;-60
2022/06/09 09:20:09;;;;;;;;;3.33;2.67;;;;;22.85;54.40;97678.88;4979889;27;102154;-61
2022/06/09 09:22:41;;;;;;;;;3.00;3.00;;;;;22.85;54.25;97676.94;5015650;27;104306;-60
2022/06/09 09:25:35;;;;;;;;;2.00;2.00;;;;;22.86;54.67;97673.06;5013988;27;102313;-61
2022/06/09 09:28:11;;;;;;;;;4.00;3.00;;;;;22.88;54.43;97672.72;5027471;27;102145;-61
2022/06/09 09:31:18;;;;;;;;;2.00;2.00;;;;;22.90;54.50;97676.03;5012439;27;102540;-61
2022/06/09 09:33:46;;;;;;;;;2.00;2.00;;;;;22.90;54.20;97676.84;4998475;27;108904;-61
2022/06/09 09:36:19;;;;;;;;;1.67;1.67;;;;;22.90;54.39;97676.84;5021959;27;102405;-60
2022/06/09 09:39:11;;;;;;;;;3.00;3.00;;;;;22.91;54.11;97674.91;5023787;27;102529;-61
2022/06/09 09:41:39;;;;;;;;;2.33;2.00;;;;;22.91;54.18;97672.97;5023824;27;102335;-60
2022/06/09 09:44:16;;;;;;;;;2.67;2.67;;;;;22.92;54.27;97673.78;5015335;27;104194;-60
2022/06/09 09:46:51;;;;;;;;;2.00;2.00;;;;;22.92;54.11;97674.59;5021575;27;101835;-61
2022/06/09 09:49:43;;;;;;;;;2.00;2.00;;;;;22.93;54.27;97678.16;5023844;27;102263;-61
2022/06/09 09:52:29;;;;;;;;;3.00;3.00;;;;;22.93;54.03;97678.97;5027332;27;102479;-60
2022/06/09 09:54:56;;;;;;;;;2.00;1.67;;;;;22.92;54.27;97674.59;5016134;27;108797;-60
2022/06/09 09:57:24;;;;;;;;;2.00;1.67;;;;;22.94;54.24;97675.13;5010119;27;101987;-61
2022/06/09 09:59:52;;;;;;;;;3.00;3.00;;;;;22.96;54.16;97674.81;5017221;27;101866;-61
2022/06/09 10:09:22;;;;;;;;;3.67;3.67;;;;;23.01;53.89;97669.22;4903994;28;103177;-61
2022/06/09 10:12:07;;;;;;;;;2.00;2.00;;;;;23.00;53.87;97673.09;4909069;28;102347;-60
2022/06/09 10:14:39;;;;;;;;;2.00;2.00;;;;;23.01;53.93;97672.75;4991463;27;102070;-60
2022/06/09 10:17:49;;;;;;;;;2.00;2.00;;;;;23.00;53.81;97679.44;5030997;27;107123;-60
2022/06/09 10:20:41;;;;;;;;;3.00;2.00;;;;;23.00;53.80;97673.91;5013664;27;102304;-61
2022/06/09 10:23:18;;;;;;;;;2.33;2.00;;;;;23.00;53.80;97673.09;5016235;27;102344;-61
2022/06/09 10:26:05;;;;;;;;;2.67;2.33;;;;;23.00;53.93;97671.16;5009187;27;102323;-60
2022/06/09 10:28:50;;;;;;;;;3.33;2.33;;;;;23.01;53.74;97664.50;5023467;27;108805;-60
2022/06/09 10:31:30;;;;;;;;;2.67;2.00;;;;;23.03;53.88;97678.81;5006342;27;102338;-61
2022/06/09 10:34:00;;;;;;;;;4.00;4.00;;;;;23.03;53.70;97680.75;5008657;27;102328;-61
2022/06/09 10:36:41;;;;;;;;;3.00;3.00;;;;;23.04;53.66;97679.63;5021385;27;102167;-61
2022/06/09 10:39:37;;;;;;;;;3.00;3.00;;;;;23.04;53.53;97680.44;5027360;27;104113;-61
2022/06/09 10:42:25;;;;;;;;;2.00;2.00;;;;;23.05;53.67;97671.06;4962094;27;103065;-60
2022/06/09 10:44:55;;;;;;;;;2.00;2.00;;;;;23.04;53.48;97669.41;4999958;27;102421;-61
2022/06/09 10:56:08;;;;;;;;;1.33;0.67;;;;;23.05;53.75;97657.28;4993063;27;102515;-60
2022/06/09 10:58:48;;;;;;;;;2.67;2.00;;;;;23.05;53.60;97660.03;5000694;27;102465;-60
2022/06/09 11:01:20;;;;;;;;;2.00;2.00;;;;;23.07;53.67;97659.72;5005859;27;108863;-60
2022/06/09 11:03:48;;;;;;;;;2.00;2.00;;;;;23.07;53.59;97657.78;5004977;27;102248;-60
2022/06/09 11:06:40;;;;;;;;;2.33;2.33;;;;;23.09;53.44;97661.06;5018920;27;102192;-60
2022/06/09 11:09:10;;;;;;;;;3.00;2.00;;;;;23.09;53.52;97650.03;5015844;27;105177;-60
2022/06/09 11:11:49;;;;;;;;;2.33;1.67;;;;;23.10;53.57;97653.56;5010588;27;104157;-60
2022/06/09 11:14:53;;;;;;;;;2.00;2.00;;;;;23.09;53.57;97654.72;5024596;27;101981;-60
2022/06/09 11:17:26;;;;;;;;;4.67;3.67;;;;;23.10;53.43;97650.81;5015841;27;102467;-61
2022/06/09 11:20:34;;;;;;;;;1.67;1.67;;;;;23.09;53.42;97650.03;5016907;27;102684;-60
2022/06/09 11:23:10;;;;;;;;;2.00;2.00;;;;;23.08;53.36;97653.91;4999066;27;108942;-61
2022/06/09 11:25:41;;;;;;;;;3.00;3.00;;;;;23.08;53.58;97647.56;5028893;27;102572;-61
2022/06/09 11:28:17;;;;;;;;;2.67;2.67;;;;;23.07;53.48;97646.75;5018615;27;102392;-60
2022/06/09 11:31:16;;;;;;;;;3.00;3.00;;;;;23.08;53.59;97651.13;5022795;27;102385;-60
2022/06/09 11:34:02;;;;;;;;;1.67;1.67;;;;;23.08;53.49;97653.91;4965452;27;109795;-60
2022/06/09 11:36:40;;;;;;;;;2.67;2.67;;;;;23.08;53.58;97651.13;5007490;27;102244;-60
2022/06/09 11:39:17;;;;;;;;;3.00;2.00;;;;;23.08;53.50;97653.91;5011260;27;102272;-60
2022/06/09 11:42:02;;;;;;;;;2.67;2.00;;;;;23.08;53.48;97659.41;5007179;27;102214;-60
2022/06/09 11:44:35;;;;;;;;;2.67;2.00;;;;;23.08;53.37;97662.16;4998469;27;108941;-60
2022/06/09 11:47:16;;;;;;;;;2.00;2.00;;;;;23.08;53.57;97658.59;5011765;27;102245;-61
2022/06/09 11:49:51;;;;;;;;;1.00;1.00;;;;;23.07;53.49;97655.00;5013724;27;104986;-60
2022/06/09 11:52:56;;;;;;;;;3.00;3.00;;;;;23.07;53.49;97646.75;5015638;27;110999;-60
2022/06/09 11:55:58;;;;;;;;;3.00;2.67;;;;;23.06;53.47;97639.59;4919999;28;108787;-61
2022/06/09 11:58:37;;;;;;;;;1.67;1.67;;;;;23.05;53.47;97637.97;4918328;28;102434;-61
2022/06/09 12:01:32;;;;;;;;;2.00;2.00;;;;;23.07;53.57;97641.22;4991721;27;102247;-60
2022/06/09 12:04:07;;;;;;;;;2.67;2.67;;;;;23.06;53.48;97634.06;5007157;27;104554;-60
2022/06/09 12:06:49;;;;;;;;;1.00;1.00;;;;;23.08;53.52;97625.50;5004445;27;104331;-60
2022/06/09 12:09:43;;;;;;;;;3.00;2.00;;;;;23.08;53.77;97625.50;5016889;27;102209;-60
2022/06/09 12:12:35;;;;;;;;;2.67;1.67;;;;;23.07;53.37;97619.16;5010717;27;102337;-61